Time;durP1;ratioP1;P1;durP2;ratioP2;P2;SDS_P1;SDS_P2;PMS_P1;PMS_P2;Temp;Humidity;BMP_temperature;BMP_pressure;BME280_temperature;BME280_humidity;BME280_pressure;Samples;Min_cycle;Max_cycle;Signal;HPM_P1;HPM_P2
2021/05/20 00:01:37;;;;;;;2.17;1.65;;;;;;;11.25;67.24;97552.84;5072453;28;20142;-79
2021/05/20 00:04:03;;;;;;;1.98;1.77;;;;;;;11.30;66.97;97550.31;5072335;28;20130;-79
2021/05/20 00:06:28;;;;;;;2.80;1.42;;;;;;;11.21;67.71;97559.56;5066216;28;20043;-79
2021/05/20 00:08:54;;;;;;;2.03;1.63;;;;;;;11.26;67.40;97549.22;5055117;28;20043;-79
2021/05/20 00:11:19;;;;;;;2.05;1.60;;;;;;;11.28;67.41;97549.00;5085186;28;20458;-79
2021/05/20 00:13:44;;;;;;;1.90;1.50;;;;;;;11.35;67.16;97557.41;5089626;28;20028;-79
2021/05/20 00:16:10;;;;;;;2.22;1.52;;;;;;;11.21;67.39;97549.16;5089186;28;20394;-79
2021/05/20 00:18:35;;;;;;;2.55;1.65;;;;;;;11.15;67.45;97550.09;5088001;28;20072;-78
2021/05/20 00:21:01;;;;;;;2.28;1.92;;;;;;;11.10;67.51;97550.00;5040972;28;20023;-79
2021/05/20 00:23:26;;;;;;;4.13;2.20;;;;;;;11.09;67.08;97545.81;5080159;28;20039;-79
2021/05/20 00:25:51;;;;;;;2.20;1.92;;;;;;;11.04;67.47;97555.16;5081699;28;20032;-78
2021/05/20 00:28:17;;;;;;;3.97;2.42;;;;;;;11.12;67.10;97560.97;5076835;28;20257;-79
2021/05/20 00:30:42;;;;;;;5.22;2.88;;;;;;;11.06;67.29;97552.31;5077992;28;20027;-79
2021/05/20 00:33:07;;;;;;;5.07;2.42;;;;;;;10.90;67.77;97548.69;5094723;28;20096;-79
2021/05/20 00:35:33;;;;;;;3.38;2.40;;;;;;;10.89;67.98;97547.09;5113170;28;20497;-79
2021/05/20 00:37:58;;;;;;;4.30;2.38;;;;;;;10.88;68.36;97553.31;5077590;28;20036;-79
2021/05/20 00:40:23;;;;;;;2.47;2.10;;;;;;;10.95;67.74;97567.00;5077244;28;20333;-79
2021/05/20 00:42:49;;;;;;;2.63;1.90;;;;;;;10.90;68.36;97556.50;5112562;28;20148;-79
2021/05/20 00:45:15;;;;;;;2.85;2.25;;;;;;;10.95;68.11;97558.38;5077472;28;20080;-79
2021/05/20 00:47:40;;;;;;;3.13;2.83;;;;;;;11.00;68.17;97561.06;5094362;28;20035;-79
2021/05/20 00:50:08;;;;;;;2.60;2.38;;;;;;;11.05;67.90;97571.56;5070375;28;20027;-79
2021/05/20 00:52:34;;;;;;;3.50;2.28;;;;;;;11.06;67.89;97571.34;5060614;28;20512;-79
2021/05/20 00:55:03;;;;;;;4.43;2.55;;;;;;;10.97;67.93;97572.75;5057319;28;20024;-79
2021/05/20 00:57:29;;;;;;;2.90;2.15;;;;;;;10.97;67.99;97574.59;5076358;28;20114;-79
2021/05/20 00:59:54;;;;;;;3.65;2.72;;;;;;;10.95;67.85;97580.03;5054696;28;20166;-79
2021/05/20 01:02:20;;;;;;;2.63;2.40;;;;;;;10.89;68.11;97580.19;5073701;28;20034;-79
2021/05/20 01:04:45;;;;;;;3.22;2.25;;;;;;;10.81;67.80;97573.53;5070343;28;20024;-79
2021/05/20 01:07:11;;;;;;;3.97;2.65;;;;;;;10.79;68.25;97570.38;5059620;28;20027;-79
2021/05/20 01:09:37;;;;;;;2.72;2.10;;;;;;;10.84;68.13;97580.88;5093124;28;20493;-79
2021/05/20 01:12:06;;;;;;;3.47;2.40;;;;;;;10.84;68.05;97573.84;5071346;28;20114;-79
2021/05/20 01:14:40;;;;;;;3.90;2.38;;;;;;;10.65;68.04;97575.88;5091509;28;20020;-79
2021/05/20 01:17:06;;;;;;;3.60;2.30;;;;;;;10.81;67.74;97570.94;5093930;28;20079;-79
2021/05/20 01:19:35;;;;;;;3.40;2.78;;;;;;;10.67;67.78;97568.63;5076854;28;20028;-79
2021/05/20 01:22:00;;;;;;;3.60;2.40;;;;;;;10.77;67.48;97570.59;5060102;28;20032;-79
2021/05/20 01:24:25;;;;;;;2.80;2.08;;;;;;;10.70;67.97;97572.56;5111949;28;20030;-79
2021/05/20 01:26:51;;;;;;;3.58;2.42;;;;;;;10.71;67.88;97568.16;5093675;28;20028;-79
2021/05/20 01:29:17;;;;;;;4.38;2.60;;;;;;;10.69;68.21;97568.38;5089939;28;20028;-79
2021/05/20 01:31:42;;;;;;;3.10;2.78;;;;;;;10.70;67.80;97574.41;5073873;28;20035;-79
2021/05/20 01:34:09;;;;;;;2.97;2.30;;;;;;;10.64;68.52;97568.28;5111775;28;20030;-79
2021/05/20 01:36:34;;;;;;;3.20;2.58;;;;;;;10.66;68.25;97564.44;5093716;28;20038;-79
2021/05/20 01:39:01;;;;;;;2.72;2.30;;;;;;;10.60;68.18;97572.41;5092980;28;20389;-79
2021/05/20 01:41:27;;;;;;;3.10;2.30;;;;;;;10.55;68.29;97569.72;5063494;28;20478;-79
2021/05/20 01:43:52;;;;;;;2.60;2.10;;;;;;;10.59;68.63;97578.63;5092881;28;20027;-79
2021/05/20 01:46:18;;;;;;;3.55;2.00;;;;;;;10.59;68.47;97583.84;5062649;28;20062;-79
2021/05/20 01:48:44;;;;;;;2.60;2.30;;;;;;;10.56;68.79;97577.28;5063093;28;20028;-79
2021/05/20 01:51:17;;;;;;;3.63;2.67;;;;;;;10.47;68.94;97578.72;5092921;28;20042;-79
2021/05/20 01:53:48;;;;;;;3.67;2.42;;;;;;;10.48;68.50;97582.88;5076083;28;20019;-79
2021/05/20 01:56:15;;;;;;;5.10;2.97;;;;;;;10.65;68.18;97583.69;5062417;28;20038;-79
2021/05/20 01:58:41;;;;;;;3.50;2.50;;;;;;;10.62;68.22;97586.75;5093204;28;20040;-79
2021/05/20 02:01:07;;;;;;;3.58;2.95;;;;;;;10.54;68.69;97592.38;5075863;28;20050;-79
2021/05/20 02:03:32;;;;;;;3.90;2.53;;;;;;;10.53;68.79;97593.38;5071016;28;20131;-79
2021/05/20 02:05:58;;;;;;;4.35;3.00;;;;;;;10.54;68.91;97600.19;5092748;28;20027;-79
2021/05/20 02:08:24;;;;;;;2.83;2.45;;;;;;;10.52;68.86;97591.81;5075889;28;20035;-79
2021/05/20 02:10:50;;;;;;;4.82;3.40;;;;;;;10.66;68.69;97592.31;5058872;28;20027;-79
2021/05/20 02:13:16;;;;;;;5.22;3.13;;;;;;;10.67;68.74;97596.47;5092521;28;20359;-79
2021/05/20 02:15:41;;;;;;;4.43;3.22;;;;;;;10.65;68.76;97591.50;5075775;28;20469;-79
2021/05/20 02:18:06;;;;;;;5.88;3.33;;;;;;;10.72;68.52;97601.78;5092927;28;20032;-79
2021/05/20 02:20:34;;;;;;;4.63;3.10;;;;;;;10.72;68.50;97601.00;5092258;28;20036;-79
2021/05/20 02:22:59;;;;;;;4.55;2.83;;;;;;;10.71;68.90;97600.22;5092798;28;20032;-79
2021/05/20 02:25:25;;;;;;;5.07;3.10;;;;;;;10.70;68.87;97603.84;5085708;28;20063;-79
2021/05/20 02:27:50;;;;;;;4.68;2.88;;;;;;;10.68;68.57;97596.25;5055521;28;20108;-79
2021/05/20 02:30:16;;;;;;;5.03;3.42;;;;;;;10.72;68.68;97601.00;5090752;28;20055;-79
2021/05/20 02:32:42;;;;;;;6.40;3.58;;;;;;;10.76;68.54;97608.13;5085619;28;20024;-79
2021/05/20 02:35:09;;;;;;;5.13;3.60;;;;;;;10.75;68.24;97606.53;5075273;28;20081;-79
2021/05/20 02:37:35;;;;;;;6.78;4.45;;;;;;;10.80;68.07;97604.00;5058926;28;20085;-79
2021/05/20 02:40:01;;;;;;;5.28;4.03;;;;;;;10.76;68.65;97596.88;5075075;28;20036;-79
2021/05/20 02:42:27;;;;;;;4.65;3.72;;;;;;;10.81;68.61;97599.56;5057115;28;20055;-78
2021/05/20 02:44:52;;;;;;;5.90;3.65;;;;;;;10.83;68.45;97597.53;5071800;28;20027;-79
2021/05/20 02:47:17;;;;;;;4.78;3.80;;;;;;;10.86;68.16;97603.09;5074923;28;20032;-79
2021/05/20 02:49:43;;;;;;;6.05;4.00;;;;;;;10.83;68.50;97616.56;5074387;28;20485;-79
2021/05/20 02:52:09;;;;;;;6.93;3.80;;;;;;;10.82;68.24;97614.97;5092106;28;20024;-79
2021/05/20 02:54:35;;;;;;;6.93;5.10;;;;;;;10.79;68.37;97606.84;5075193;28;20031;-80
2021/05/20 02:57:00;;;;;;;7.32;4.93;;;;;;;10.77;68.15;97604.47;5073737;28;20020;-79
2021/05/20 02:59:26;;;;;;;9.05;5.18;;;;;;;10.86;68.10;97615.28;5056263;28;20032;-80
2021/05/20 03:01:52;;;;;;;8.02;5.35;;;;;;;10.85;68.33;97613.72;5091622;28;20091;-80
2021/05/20 03:04:17;;;;;;;10.48;5.75;;;;;;;10.86;68.12;97608.28;5109822;28;20043;-80
2021/05/20 03:06:42;;;;;;;8.82;5.30;;;;;;;10.89;68.49;97614.81;5091606;28;20094;-79
2021/05/20 03:09:09;;;;;;;10.35;6.93;;;;;;;10.83;68.40;97607.94;5084552;28;20097;-79
2021/05/20 03:11:35;;;;;;;8.98;6.03;;;;;;;10.89;68.47;97603.63;5091646;28;20065;-79
2021/05/20 03:14:00;;;;;;;9.50;6.32;;;;;;;10.89;68.49;97614.81;5091938;28;20031;-80
2021/05/20 03:16:26;;;;;;;10.60;6.78;;;;;;;10.88;68.43;97605.41;5057798;28;20050;-79
2021/05/20 03:18:51;;;;;;;9.43;7.00;;;;;;;10.88;68.61;97615.84;5074461;28;20028;-79
2021/05/20 03:21:17;;;;;;;9.77;6.97;;;;;;;10.85;68.75;97621.53;5054918;28;20035;-79
2021/05/20 03:23:45;;;;;;;10.25;7.53;;;;;;;10.77;68.39;97624.53;5058398;28;20394;-79
2021/05/20 03:26:11;;;;;;;10.73;7.38;;;;;;;10.75;69.17;97616.16;5092008;28;20027;-78
2021/05/20 03:28:36;;;;;;;10.63;7.70;;;;;;;10.84;68.93;97614.75;5091598;28;20027;-79
2021/05/20 03:31:01;;;;;;;9.63;6.90;;;;;;;10.92;68.65;97616.19;5080457;28;20032;-79
2021/05/20 03:33:27;;;;;;;9.75;7.13;;;;;;;10.92;68.69;97616.19;5072742;28;20390;-79
2021/05/20 03:35:52;;;;;;;9.65;6.93;;;;;;;10.88;68.94;97618.44;5067845;28;20026;-79
2021/05/20 03:38:18;;;;;;;10.95;7.88;;;;;;;10.83;68.85;97615.75;5075207;28;20378;-79
2021/05/20 03:40:43;;;;;;;10.02;7.00;;;;;;;10.86;68.64;97623.91;5074095;28;20077;-79
2021/05/20 03:43:08;;;;;;;11.82;7.88;;;;;;;10.83;68.78;97613.16;5089677;28;20040;-79
2021/05/20 03:45:34;;;;;;;11.50;7.95;;;;;;;10.84;68.67;97615.53;5074157;28;20078;-79
2021/05/20 03:47:59;;;;;;;11.77;8.25;;;;;;;10.88;68.62;97618.44;5075164;28;20478;-79
2021/05/20 03:50:25;;;;;;;10.35;7.30;;;;;;;10.90;68.66;97611.22;5073822;28;20307;-80
2021/05/20 03:52:50;;;;;;;12.18;8.48;;;;;;;10.93;69.06;97615.94;5091096;28;20219;-79
2021/05/20 03:55:15;;;;;;;12.15;7.70;;;;;;;10.98;68.69;97621.22;5091172;28;20024;-79
2021/05/20 03:57:41;;;;;;;15.32;8.40;;;;;;;11.04;68.20;97625.50;5095058;28;20028;-79
2021/05/20 04:00:07;;;;;;;9.45;6.97;;;;;;;11.05;68.62;97621.06;5094694;28;20243;-79
2021/05/20 04:02:32;;;;;;;10.98;7.90;;;;;;;11.05;68.51;97618.47;5095312;28;20220;-79
2021/05/20 04:04:58;;;;;;;10.48;7.70;;;;;;;11.05;68.40;97613.25;5108046;28;20717;-79
2021/05/20 04:07:23;;;;;;;12.43;8.32;;;;;;;11.03;68.47;97623.13;5061525;28;20146;-79
2021/05/20 04:09:48;;;;;;;12.20;9.10;;;;;;;11.01;68.48;97633.78;5094490;28;20062;-79
2021/05/20 04:12:14;;;;;;;12.20;8.70;;;;;;;11.00;68.49;97623.59;5065660;28;20498;-79
2021/05/20 04:14:40;;;;;;;11.88;8.68;;;;;;;11.03;68.90;97636.16;5094095;28;20110;-79
2021/05/20 04:17:05;;;;;;;12.75;8.60;;;;;;;11.04;68.73;97646.34;5071373;28;20470;-79
2021/05/20 04:19:31;;;;;;;13.13;9.05;;;;;;;11.16;68.30;97653.31;5077746;28;20028;-79
2021/05/20 04:21:56;;;;;;;12.15;8.27;;;;;;;11.00;68.92;97653.06;5094865;28;20463;-79
2021/05/20 04:24:24;;;;;;;11.65;8.60;;;;;;;11.14;68.47;97655.34;5060709;28;20414;-79
2021/05/20 04:26:49;;;;;;;12.27;8.27;;;;;;;11.11;68.03;97661.06;5094986;28;20032;-79
2021/05/20 04:29:15;;;;;;;12.77;8.55;;;;;;;11.15;68.39;97668.16;5091801;28;20042;-79
2021/05/20 04:31:40;;;;;;;11.90;8.40;;;;;;;11.13;68.14;97674.63;5074776;28;20023;-79
2021/05/20 04:34:06;;;;;;;11.50;8.55;;;;;;;11.13;68.15;97680.63;5094912;28;20028;-79
2021/05/20 04:36:31;;;;;;;11.27;8.13;;;;;;;11.12;68.19;97667.84;5077413;28;20354;-79
2021/05/20 04:38:57;;;;;;;13.80;9.35;;;;;;;11.08;68.23;97669.34;5094186;28;20144;-79
2021/05/20 04:41:22;;;;;;;10.85;7.32;;;;;;;11.04;68.61;97674.22;5094421;28;20323;-79
2021/05/20 04:43:47;;;;;;;13.90;7.70;;;;;;;11.11;68.30;97676.69;5077714;28;20032;-79
2021/05/20 04:46:13;;;;;;;10.07;7.55;;;;;;;11.05;68.31;97675.78;5075825;28;20390;-79
2021/05/20 04:48:38;;;;;;;9.80;7.00;;;;;;;11.23;67.58;97682.63;5094183;28;20039;-79
2021/05/20 04:51:04;;;;;;;10.05;6.90;;;;;;;11.06;67.92;97680.00;5077731;28;20027;-79
2021/05/20 04:53:29;;;;;;;10.93;7.63;;;;;;;11.04;67.98;97693.25;5074250;28;20063;-79
2021/05/20 04:55:55;;;;;;;9.15;6.80;;;;;;;11.12;67.83;97692.09;5094559;28;20039;-79
2021/05/20 04:58:22;;;;;;;10.77;6.75;;;;;;;11.10;67.43;97701.16;5094927;28;20028;-79
2021/05/20 05:00:48;;;;;;;9.05;6.63;;;;;;;11.09;67.57;97699.56;5092954;28;20028;-79
2021/05/20 05:03:14;;;;;;;10.40;7.28;;;;;;;11.14;67.61;97697.06;5076938;28;20038;-80
2021/05/20 05:05:40;;;;;;;9.50;6.20;;;;;;;11.16;66.97;97692.41;5066219;28;20028;-79
2021/05/20 05:08:05;;;;;;;6.65;5.30;;;;;;;11.19;66.84;97695.34;5091750;28;20092;-79
2021/05/20 05:10:30;;;;;;;8.85;6.07;;;;;;;11.20;66.95;97703.94;5075520;28;20398;-79
2021/05/20 05:12:56;;;;;;;6.88;5.63;;;;;;;11.18;67.19;97698.97;5075893;28;20019;-80
2021/05/20 05:15:21;;;;;;;11.02;6.72;;;;;;;11.21;67.80;97708.13;5059206;28;20058;-79
2021/05/20 05:17:46;;;;;;;9.80;6.07;;;;;;;11.28;67.62;97708.78;5056073;28;20040;-80
2021/05/20 05:20:12;;;;;;;7.65;5.90;;;;;;;11.33;67.34;97714.06;5072946;28;20535;-80
2021/05/20 05:22:37;;;;;;;6.82;5.47;;;;;;;11.37;66.93;97709.19;5078150;28;20046;-79
2021/05/20 05:25:03;;;;;;;7.30;5.95;;;;;;;11.31;67.32;97721.34;5056311;28;20049;-80
2021/05/20 05:27:29;;;;;;;7.30;5.65;;;;;;;11.38;67.15;97718.59;5076912;28;20508;-80
2021/05/20 05:29:54;;;;;;;6.40;4.95;;;;;;;11.40;66.19;97722.53;5077519;28;20031;-79
2021/05/20 05:32:20;;;;;;;6.82;4.45;;;;;;;11.48;66.19;97713.53;5075297;28;20040;-79
2021/05/20 05:34:45;;;;;;;6.65;4.53;;;;;;;11.49;66.18;97711.72;5076643;28;20475;-79
2021/05/20 05:37:11;;;;;;;6.18;4.57;;;;;;;11.61;66.10;97717.66;5093528;28;20032;-79
2021/05/20 05:39:36;;;;;;;8.07;5.38;;;;;;;11.52;66.51;97716.47;5069586;28;20028;-79
2021/05/20 05:42:01;;;;;;;7.78;5.90;;;;;;;11.56;65.83;97720.94;5076846;28;20074;-79
2021/05/20 05:44:27;;;;;;;6.85;5.28;;;;;;;11.60;65.42;97727.28;5091536;28;20032;-78
2021/05/20 05:46:52;;;;;;;7.25;5.45;;;;;;;11.63;65.49;97731.22;5069881;28;20115;-78
2021/05/20 05:49:22;;;;;;;6.00;4.53;;;;;;;11.67;65.28;97737.56;5076140;28;20027;-79
2021/05/20 05:52:08;;;;;;;7.70;5.13;;;;;;;11.65;65.44;97734.38;5070446;28;20107;-78
2021/05/20 05:54:33;;;;;;;7.70;5.90;;;;;;;11.66;65.30;97733.38;5092585;28;20034;-79
2021/05/20 05:56:59;;;;;;;7.72;5.05;;;;;;;11.69;65.94;97740.72;5093685;28;20123;-79
2021/05/20 05:59:24;;;;;;;7.45;5.53;;;;;;;11.61;65.38;97738.50;5058162;28;20060;-80
2021/05/20 06:01:50;;;;;;;6.85;5.03;;;;;;;11.75;65.42;97737.16;5059245;28;20108;-79
2021/05/20 06:04:16;;;;;;;6.18;4.90;;;;;;;11.75;66.08;97736.38;5055921;28;20078;-79
2021/05/20 06:06:43;;;;;;;5.25;4.00;;;;;;;11.89;65.89;97737.66;5059019;28;20027;-79
2021/05/20 06:09:09;;;;;;;5.90;4.40;;;;;;;12.01;65.88;97734.16;5074918;28;20461;-79
2021/05/20 06:11:35;;;;;;;5.93;4.32;;;;;;;12.12;65.41;97741.13;5067980;28;20031;-78
2021/05/20 06:14:06;;;;;;;6.20;4.88;;;;;;;12.20;65.40;97732.91;5051635;28;20032;-78
2021/05/20 06:16:35;;;;;;;6.05;4.43;;;;;;;12.33;64.15;97742.19;5092640;28;20078;-78
2021/05/20 06:19:01;;;;;;;5.75;4.03;;;;;;;12.36;63.96;97745.09;5072302;28;20445;-78
2021/05/20 06:21:26;;;;;;;5.63;4.40;;;;;;;12.40;64.42;97749.84;5091140;28;20378;-78
2021/05/20 06:23:52;;;;;;;5.25;4.10;;;;;;;12.41;64.85;97747.00;5057259;28;20032;-78
2021/05/20 06:26:18;;;;;;;6.97;4.32;;;;;;;12.49;64.00;97741.38;5091229;28;20126;-78
2021/05/20 06:28:43;;;;;;;11.63;4.95;;;;;;;12.59;63.30;97737.28;5074169;28;20055;-79
2021/05/20 06:31:11;;;;;;;6.25;4.78;;;;;;;12.56;63.00;97735.97;5053578;28;20406;-78
2021/05/20 06:33:36;;;;;;;6.47;4.88;;;;;;;12.67;63.97;97745.47;5070677;28;20042;-78
2021/05/20 06:36:02;;;;;;;6.30;4.47;;;;;;;12.74;63.38;97753.91;5074246;28;20027;-78
2021/05/20 06:38:27;;;;;;;5.88;4.28;;;;;;;12.81;63.36;97751.13;5090055;28;20031;-78
2021/05/20 06:40:54;;;;;;;4.93;4.18;;;;;;;12.73;63.33;97748.94;5053366;28;20028;-78
2021/05/20 06:43:20;;;;;;;5.72;3.90;;;;;;;12.80;62.90;97744.34;5073676;28;20024;-78
2021/05/20 06:45:45;;;;;;;4.90;4.10;;;;;;;12.86;63.03;97745.97;5090691;28;20530;-78
2021/05/20 06:48:15;;;;;;;5.78;4.20;;;;;;;12.81;62.73;97745.91;5057203;28;20062;-78
2021/05/20 06:50:40;;;;;;;5.50;4.00;;;;;;;13.00;62.58;97746.38;5069471;28;20488;-78
2021/05/20 06:53:06;;;;;;;5.07;3.92;;;;;;;13.05;62.50;97748.25;5057055;28;20108;-78
2021/05/20 06:55:33;;;;;;;5.80;4.63;;;;;;;13.04;62.82;97749.28;5057874;28;20526;-78
2021/05/20 07:00:40;;;;;;;6.28;4.45;;;;;;;13.29;62.02;97756.59;5089821;28;20019;-78
2021/05/20 07:03:06;;;;;;;4.60;3.25;;;;;;;13.46;61.32;97761.75;5073964;28;20404;-78
2021/05/20 07:05:32;;;;;;;4.93;3.70;;;;;;;13.55;59.66;97760.25;5053156;28;20049;-78
2021/05/20 07:08:00;;;;;;;5.85;4.30;;;;;;;13.48;60.31;97759.66;5072308;28;20032;-78
2021/05/20 07:10:26;;;;;;;4.55;3.67;;;;;;;13.52;59.39;97760.78;5071701;28;20126;-78
2021/05/20 07:12:52;;;;;;;3.72;3.22;;;;;;;13.48;58.48;97762.28;5072904;28;20115;-78
2021/05/20 07:15:18;;;;;;;3.65;3.10;;;;;;;13.40;59.59;97763.53;5089990;28;20027;-78
2021/05/20 07:17:43;;;;;;;4.10;3.17;;;;;;;13.36;59.92;97761.66;5063543;28;20024;-78
2021/05/20 07:20:09;;;;;;;3.30;3.00;;;;;;;13.31;59.88;97764.97;5072613;28;21002;-78
2021/05/20 07:22:35;;;;;;;3.25;3.00;;;;;;;13.44;58.63;97766.44;5089661;28;20043;-78
2021/05/20 07:25:04;;;;;;;4.13;3.35;;;;;;;13.41;59.10;97762.47;5063044;28;20039;-78
2021/05/20 07:27:31;;;;;;;4.15;3.10;;;;;;;13.50;58.68;97770.66;5087145;28;20112;-78
2021/05/20 07:29:57;;;;;;;3.03;2.72;;;;;;;13.51;58.43;97769.66;5066785;28;20038;-78
2021/05/20 07:32:22;;;;;;;2.75;2.25;;;;;;;13.64;58.34;97782.31;5054061;28;20032;-78
2021/05/20 07:34:47;;;;;;;3.33;2.60;;;;;;;13.63;58.56;97772.88;5090338;28;20039;-78
2021/05/20 07:37:13;;;;;;;2.70;2.33;;;;;;;13.68;57.47;97770.31;5073371;28;20039;-78
2021/05/20 07:39:38;;;;;;;2.55;2.15;;;;;;;13.75;57.13;97764.09;5056018;28;20023;-78
2021/05/20 07:42:04;;;;;;;2.88;2.08;;;;;;;13.82;57.04;97768.06;5072616;28;20543;-78
2021/05/20 07:44:29;;;;;;;3.50;2.97;;;;;;;13.90;57.93;97761.59;5072756;28;20302;-78
2021/05/20 07:46:56;;;;;;;4.20;2.72;;;;;;;14.43;58.10;97762.44;5054251;28;20406;-78
2021/05/20 07:49:22;;;;;;;2.53;2.25;;;;;;;14.93;55.47;97765.53;5063336;28;20077;-78
2021/05/20 07:51:47;;;;;;;3.58;2.15;;;;;;;15.44;54.56;97775.38;5058689;28;20024;-78
2021/05/20 07:54:13;;;;;;;2.65;2.08;;;;;;;15.40;53.65;97763.81;5089670;28;20197;-78
2021/05/20 07:56:38;;;;;;;2.85;1.80;;;;;;;15.47;52.75;97771.41;5073471;28;20292;-78
2021/05/20 07:59:03;;;;;;;2.03;1.88;;;;;;;15.07;54.14;97771.09;5088364;28;20039;-77
2021/05/20 08:01:31;;;;;;;2.10;1.90;;;;;;;14.97;54.12;97773.69;5062464;28;20471;-78
2021/05/20 08:04:02;;;;;;;4.60;2.10;;;;;;;14.73;55.17;97771.50;5067327;28;20040;-78
2021/05/20 08:07:07;;;;;;;3.90;2.10;;;;;;;14.66;57.55;97775.41;5086630;28;20135;-78
2021/05/20 08:09:34;;;;;;;2.00;1.83;;;;;;;14.55;57.37;97785.03;5098664;28;20083;-78
2021/05/20 08:12:00;;;;;;;2.35;2.03;;;;;;;14.45;56.61;97777.91;5065785;28;20478;-78
2021/05/20 08:14:25;;;;;;;1.98;1.88;;;;;;;14.50;56.32;97779.75;5072679;28;20195;-78
2021/05/20 08:16:53;;;;;;;2.35;1.95;;;;;;;14.67;56.38;97780.41;5071492;28;20107;-78
2021/05/20 08:19:18;;;;;;;2.30;2.10;;;;;;;14.76;54.89;97781.47;5089325;28;20061;-78
2021/05/20 08:21:44;;;;;;;2.33;2.00;;;;;;;14.86;54.84;97785.97;5084776;28;20023;-78
2021/05/20 08:24:10;;;;;;;2.88;2.10;;;;;;;14.88;55.09;97775.22;5107268;28;20031;-78
2021/05/20 08:26:35;;;;;;;2.53;2.25;;;;;;;14.90;54.49;97781.00;5089536;28;20031;-78
2021/05/20 08:29:01;;;;;;;3.15;1.85;;;;;;;15.16;53.70;97780.03;5088538;28;20031;-78
2021/05/20 08:31:28;;;;;;;3.50;2.80;;;;;;;15.05;54.02;97783.69;5085081;28;20124;-78
2021/05/20 08:33:54;;;;;;;2.80;2.50;;;;;;;15.06;53.40;97777.41;5090032;28;20471;-78
2021/05/20 08:36:22;;;;;;;3.35;2.58;;;;;;;14.95;54.37;97767.91;5087777;28;20495;-78
2021/05/20 08:38:48;;;;;;;4.25;2.97;;;;;;;14.94;55.12;97767.13;5069437;28;20040;-78
2021/05/20 08:41:17;;;;;;;2.88;2.58;;;;;;;14.59;55.11;97768.56;5102676;28;20044;-78
2021/05/20 08:43:42;;;;;;;3.70;2.85;;;;;;;14.79;54.40;97767.06;5073940;28;20024;-78
2021/05/20 08:46:08;;;;;;;3.33;3.03;;;;;;;14.90;54.29;97762.66;5088025;28;20647;-78
2021/05/20 08:48:33;;;;;;;3.58;2.72;;;;;;;14.96;54.03;97767.66;5075167;28;20032;-78
2021/05/20 08:51:01;;;;;;;3.92;2.42;;;;;;;15.09;52.79;97771.63;5089461;28;20042;-78
2021/05/20 08:53:26;;;;;;;1.83;1.65;;;;;;;15.08;51.51;97767.44;5063037;28;20570;-78
2021/05/20 08:55:51;;;;;;;2.38;2.00;;;;;;;15.15;50.98;97769.81;5071595;28;20480;-78
2021/05/20 08:58:22;;;;;;;2.53;2.33;;;;;;;15.33;52.46;97777.16;5092680;28;20035;-78
2021/05/20 09:00:47;;;;;;;3.10;2.65;;;;;;;15.21;52.80;97773.22;5090109;28;20089;-78
2021/05/20 09:03:14;;;;;;;2.35;2.13;;;;;;;15.65;51.82;97767.50;5090948;28;20035;-77
2021/05/20 09:05:40;;;;;;;2.83;2.50;;;;;;;16.35;51.69;97759.03;5075597;28;20432;-77
2021/05/20 09:08:11;;;;;;;2.65;1.88;;;;;;;17.31;50.16;97757.06;5085900;28;20402;-77
2021/05/20 09:10:38;;;;;;;2.13;1.92;;;;;;;18.20;47.20;97757.91;5075367;28;20516;-77
2021/05/20 09:13:06;;;;;;;2.30;2.10;;;;;;;18.84;45.50;97764.59;5093098;28;20031;-78
2021/05/20 09:15:34;;;;;;;2.10;1.90;;;;;;;18.99;45.43;97754.94;5092920;28;20032;-77
2021/05/20 09:18:20;;;;;;;2.40;2.00;;;;;;;18.70;44.01;97755.81;5059517;28;20027;-78
2021/05/20 09:20:51;;;;;;;1.77;1.60;;;;;;;18.30;43.58;97761.25;5092318;28;20051;-78
2021/05/20 09:23:18;;;;;;;2.30;2.00;;;;;;;17.93;45.35;97765.28;5093935;28;20044;-78
2021/05/20 09:25:45;;;;;;;2.63;2.40;;;;;;;17.65;45.76;97758.94;5076497;28;20073;-78
2021/05/20 09:28:12;;;;;;;1.95;1.85;;;;;;;17.95;45.48;97760.53;5056090;28;20035;-78
2021/05/20 09:30:47;;;;;;;2.08;1.98;;;;;;;18.55;44.64;97762.03;5070213;28;20142;-78
2021/05/20 09:33:17;;;;;;;2.65;2.35;;;;;;;18.71;43.11;97768.72;5086555;28;20032;-78
2021/05/20 09:35:51;;;;;;;2.40;2.20;;;;;;;18.41;43.70;97761.91;5073862;28;20024;-78
2021/05/20 09:38:24;;;;;;;2.08;1.90;;;;;;;18.21;47.06;97759.50;5090406;28;20128;-78
2021/05/20 09:40:56;;;;;;;2.22;2.08;;;;;;;18.47;45.85;97760.00;5072419;28;20035;-77
2021/05/20 09:43:30;;;;;;;2.85;2.08;;;;;;;18.59;46.38;97760.38;5103998;28;20043;-77
2021/05/20 09:45:57;;;;;;;1.85;1.58;;;;;;;18.84;42.53;97756.69;5086047;28;20089;-78
2021/05/20 09:48:26;;;;;;;1.73;1.63;;;;;;;18.48;44.76;97759.72;5075444;28;20038;-77
2021/05/20 09:50:53;;;;;;;1.80;1.60;;;;;;;18.39;45.26;97756.16;5085355;28;20031;-78
2021/05/20 09:53:22;;;;;;;2.08;1.98;;;;;;;18.00;47.05;97762.34;5070823;28;20062;-77
2021/05/20 09:55:54;;;;;;;1.85;1.75;;;;;;;17.93;45.44;97762.66;5075247;28;20123;-78
2021/05/20 09:58:26;;;;;;;2.30;1.67;;;;;;;18.00;46.09;97764.19;5074253;28;20023;-78
2021/05/20 10:00:55;;;;;;;2.05;1.70;;;;;;;17.85;46.12;97759.81;5089126;28;20028;-78
2021/05/20 10:03:22;;;;;;;2.28;2.17;;;;;;;17.75;47.55;97764.13;5091273;28;20098;-78
2021/05/20 10:05:49;;;;;;;2.40;2.20;;;;;;;17.66;45.32;97768.38;5091815;28;20030;-77
2021/05/20 10:08:18;;;;;;;2.67;2.33;;;;;;;17.24;46.08;97759.22;5074686;28;20043;-78
2021/05/20 10:10:46;;;;;;;2.53;2.33;;;;;;;17.28;46.35;97759.44;5053538;28;20028;-78
2021/05/20 10:13:14;;;;;;;3.10;2.80;;;;;;;17.18;47.22;97752.41;5074349;28;20114;-78
2021/05/20 10:15:40;;;;;;;2.53;2.28;;;;;;;17.34;46.27;97753.88;5110679;28;20028;-78
2021/05/20 10:18:10;;;;;;;2.53;2.10;;;;;;;17.36;46.84;97750.97;5078028;28;20382;-78
2021/05/20 10:20:38;;;;;;;1.85;1.75;;;;;;;17.56;48.48;97755.28;5086169;28;20076;-78
2021/05/20 10:23:21;;;;;;;2.00;1.73;;;;;;;17.75;46.95;97753.56;5073435;28;20122;-78
2021/05/20 10:25:48;;;;;;;2.30;2.00;;;;;;;18.04;43.79;97742.25;5059129;28;20031;-77
2021/05/20 10:28:16;;;;;;;1.60;1.50;;;;;;;18.25;44.82;97750.75;5057575;28;20089;-78
2021/05/20 10:30:44;;;;;;;2.33;1.70;;;;;;;18.18;45.87;97737.13;5075148;28;20088;-78
2021/05/20 10:33:10;;;;;;;1.67;1.58;;;;;;;18.38;44.83;97744.03;5067364;22;20056;-77
2021/05/20 10:35:48;;;;;;;1.63;1.52;;;;;;;18.12;44.06;97732.97;5012014;28;20392;-78
2021/05/20 10:38:35;;;;;;;1.05;1.05;;;;;;;18.06;44.03;97740.16;5011030;28;20033;-77
2021/05/20 10:41:19;;;;;;;1.50;1.40;;;;;;;17.67;43.98;97735.72;5013011;28;20037;-76
2021/05/20 10:43:46;;;;;;;2.27;2.07;;;;;;;17.64;44.29;97741.53;5013340;28;20200;-77
2021/05/20 10:46:14;;;;;;;1.50;1.40;;;;;;;17.32;44.43;97739.41;5028790;28;20782;-77
2021/05/20 10:48:52;;;;;;;0.80;0.80;;;;;;;17.02;45.81;97736.69;5040053;28;20060;-77
2021/05/20 10:51:22;;;;;;;1.30;1.20;;;;;;;17.11;47.55;97739.53;5026528;28;20025;-78
2021/05/20 10:54:04;;;;;;;1.13;1.10;;;;;;;17.32;47.46;97729.66;5020773;28;20539;-77
2021/05/20 10:56:33;;;;;;;1.50;1.40;;;;;;;18.02;44.63;97727.81;5035912;28;20036;-78
2021/05/20 10:59:01;;;;;;;1.95;1.30;;;;;;;18.61;43.07;97725.81;5042474;28;20029;-78
2021/05/20 11:01:29;;;;;;;2.08;1.42;;;;;;;18.60;44.08;97734.81;5025656;28;20032;-78
2021/05/20 11:04:03;;;;;;;0.85;0.85;;;;;;;18.33;42.69;97728.25;5030298;28;20076;-77
2021/05/20 11:06:37;;;;;;;2.55;1.27;;;;;;;18.07;42.02;97727.75;5005109;28;20029;-78
2021/05/20 11:09:04;;;;;;;1.98;1.33;;;;;;;18.45;44.63;97723.38;5047022;28;20064;-78
2021/05/20 11:11:30;;;;;;;1.45;1.20;;;;;;;18.74;41.57;97727.00;5035229;28;20035;-78
2021/05/20 11:13:56;;;;;;;3.78;1.30;;;;;;;18.50;42.14;97719.91;5023075;28;20021;-78
2021/05/20 11:16:35;;;;;;;1.48;0.90;;;;;;;18.38;44.74;97722.94;5014547;28;20453;-77
2021/05/20 11:19:19;;;;;;;1.40;1.30;;;;;;;18.59;42.42;97727.97;5011189;28;20033;-78
2021/05/20 11:21:57;;;;;;;1.70;1.20;;;;;;;18.49;41.96;97718.31;5031034;28;20090;-76
2021/05/20 11:24:27;;;;;;;1.30;1.20;;;;;;;18.98;42.84;97708.50;5032341;28;20021;-78
2021/05/20 11:26:58;;;;;;;1.70;1.58;;;;;;;18.91;44.45;97703.56;5023395;28;20049;-77
2021/05/20 11:29:25;;;;;;;1.30;1.20;;;;;;;19.06;43.12;97719.19;5020596;28;20128;-77
2021/05/20 11:32:24;;;;;;;1.30;1.20;;;;;;;19.05;43.99;97701.00;5025228;28;20044;-78
2021/05/20 11:37:37;;;;;;;1.30;1.20;;;;;;;18.46;43.81;97705.72;5040973;28;20037;-77